sensor_id;sensor_type;location;lat;lon;timestamp;P1;durP1;ratioP1;P2;durP2;ratioP2
47383;SDS011;33129;52.232;5.192;2022-10-16T00:01:37;5.23;;;2.50;;
47383;SDS011;33129;52.232;5.192;2022-10-16T00:04:03;5.23;;;1.70;;
47383;SDS011;33129;52.232;5.192;2022-10-16T00:06:30;6.57;;;1.83;;
47383;SDS011;33129;52.232;5.192;2022-10-16T00:08:56;6.50;;;2.10;;
47383;SDS011;33129;52.232;5.192;2022-10-16T00:13:57;7.10;;;2.17;;
47383;SDS011;33129;52.232;5.192;2022-10-16T00:16:25;5.50;;;1.83;;
47383;SDS011;33129;52.232;5.192;2022-10-16T00:18:52;7.67;;;2.30;;
47383;SDS011;33129;52.232;5.192;2022-10-16T00:21:19;6.37;;;1.83;;
47383;SDS011;33129;52.232;5.192;2022-10-16T00:26:19;4.50;;;1.80;;
47383;SDS011;33129;52.232;5.192;2022-10-16T00:28:46;4.73;;;1.70;;
47383;SDS011;33129;52.232;5.192;2022-10-16T00:31:16;7.22;;;2.05;;
47383;SDS011;33129;52.232;5.192;2022-10-16T00:33:45;5.33;;;1.83;;
47383;SDS011;33129;52.232;5.192;2022-10-16T00:36:12;6.73;;;2.13;;
47383;SDS011;33129;52.232;5.192;2022-10-16T00:38:41;4.68;;;1.77;;
47383;SDS011;33129;52.232;5.192;2022-10-16T00:41:09;5.43;;;1.90;;
47383;SDS011;33129;52.232;5.192;2022-10-16T00:43:44;4.97;;;1.70;;
47383;SDS011;33129;52.232;5.192;2022-10-16T00:46:16;5.93;;;1.57;;
47383;SDS011;33129;52.232;5.192;2022-10-16T00:49:12;6.17;;;1.67;;
47383;SDS011;33129;52.232;5.192;2022-10-16T00:51:42;6.17;;;1.70;;
47383;SDS011;33129;52.232;5.192;2022-10-16T00:54:12;4.97;;;1.93;;
47383;SDS011;33129;52.232;5.192;2022-10-16T00:56:41;5.70;;;1.90;;
47383;SDS011;33129;52.232;5.192;2022-10-16T00:59:14;6.13;;;1.80;;
47383;SDS011;33129;52.232;5.192;2022-10-16T01:01:58;5.53;;;2.07;;
47383;SDS011;33129;52.232;5.192;2022-10-16T01:04:24;4.67;;;1.80;;
47383;SDS011;33129;52.232;5.192;2022-10-16T01:13:05;5.73;;;1.50;;
47383;SDS011;33129;52.232;5.192;2022-10-16T01:15:37;6.33;;;1.50;;
47383;SDS011;33129;52.232;5.192;2022-10-16T01:21:02;7.73;;;1.77;;
47383;SDS011;33129;52.232;5.192;2022-10-16T01:29:09;6.50;;;1.90;;
47383;SDS011;33129;52.232;5.192;2022-10-16T01:31:41;4.30;;;1.57;;
47383;SDS011;33129;52.232;5.192;2022-10-16T01:34:18;4.73;;;1.53;;
47383;SDS011;33129;52.232;5.192;2022-10-16T01:36:55;5.23;;;1.60;;
47383;SDS011;33129;52.232;5.192;2022-10-16T01:39:29;4.00;;;1.60;;
47383;SDS011;33129;52.232;5.192;2022-10-16T01:42:11;5.97;;;2.20;;
47383;SDS011;33129;52.232;5.192;2022-10-16T01:44:45;4.50;;;1.90;;
47383;SDS011;33129;52.232;5.192;2022-10-16T01:47:13;5.40;;;2.03;;
47383;SDS011;33129;52.232;5.192;2022-10-16T01:49:40;5.23;;;2.07;;
47383;SDS011;33129;52.232;5.192;2022-10-16T01:52:09;5.83;;;1.70;;
47383;SDS011;33129;52.232;5.192;2022-10-16T01:54:40;4.87;;;1.80;;
47383;SDS011;33129;52.232;5.192;2022-10-16T01:57:10;4.33;;;1.90;;
47383;SDS011;33129;52.232;5.192;2022-10-16T01:59:42;6.73;;;1.93;;
47383;SDS011;33129;52.232;5.192;2022-10-16T02:02:11;5.60;;;2.20;;
47383;SDS011;33129;52.232;5.192;2022-10-16T02:04:47;4.83;;;2.20;;
47383;SDS011;33129;52.232;5.192;2022-10-16T02:07:20;3.97;;;1.90;;
47383;SDS011;33129;52.232;5.192;2022-10-16T02:09:45;6.53;;;2.03;;
47383;SDS011;33129;52.232;5.192;2022-10-16T02:12:14;5.00;;;1.80;;
47383;SDS011;33129;52.232;5.192;2022-10-16T02:14:52;4.75;;;2.08;;
47383;SDS011;33129;52.232;5.192;2022-10-16T02:17:18;6.53;;;2.37;;
47383;SDS011;33129;52.232;5.192;2022-10-16T02:19:46;7.17;;;2.40;;
47383;SDS011;33129;52.232;5.192;2022-10-16T02:22:22;4.37;;;2.20;;
47383;SDS011;33129;52.232;5.192;2022-10-16T02:30:05;4.67;;;2.50;;
47383;SDS011;33129;52.232;5.192;2022-10-16T02:32:40;4.53;;;2.37;;
47383;SDS011;33129;52.232;5.192;2022-10-16T02:35:08;6.43;;;2.60;;
47383;SDS011;33129;52.232;5.192;2022-10-16T02:37:35;5.87;;;2.90;;
47383;SDS011;33129;52.232;5.192;2022-10-16T02:40:03;5.93;;;3.03;;
47383;SDS011;33129;52.232;5.192;2022-10-16T02:42:35;4.93;;;2.27;;
47383;SDS011;33129;52.232;5.192;2022-10-16T02:45:02;6.43;;;2.50;;
47383;SDS011;33129;52.232;5.192;2022-10-16T02:47:29;6.23;;;2.80;;
47383;SDS011;33129;52.232;5.192;2022-10-16T02:49:55;8.53;;;2.70;;
47383;SDS011;33129;52.232;5.192;2022-10-16T02:52:21;7.60;;;3.10;;
47383;SDS011;33129;52.232;5.192;2022-10-16T02:54:47;6.03;;;2.60;;
47383;SDS011;33129;52.232;5.192;2022-10-16T02:57:12;6.13;;;2.50;;
47383;SDS011;33129;52.232;5.192;2022-10-16T02:59:38;5.50;;;2.17;;
47383;SDS011;33129;52.232;5.192;2022-10-16T03:02:04;5.50;;;2.97;;
47383;SDS011;33129;52.232;5.192;2022-10-16T03:04:29;7.07;;;2.40;;
47383;SDS011;33129;52.232;5.192;2022-10-16T03:06:55;5.23;;;2.23;;
47383;SDS011;33129;52.232;5.192;2022-10-16T03:09:21;5.90;;;2.83;;
47383;SDS011;33129;52.232;5.192;2022-10-16T03:11:46;8.63;;;2.60;;
47383;SDS011;33129;52.232;5.192;2022-10-16T03:14:12;3.80;;;2.10;;
47383;SDS011;33129;52.232;5.192;2022-10-16T03:16:38;5.43;;;2.40;;
47383;SDS011;33129;52.232;5.192;2022-10-16T03:19:03;6.23;;;2.70;;
47383;SDS011;33129;52.232;5.192;2022-10-16T03:21:29;4.87;;;2.40;;
47383;SDS011;33129;52.232;5.192;2022-10-16T03:23:55;4.97;;;2.63;;
47383;SDS011;33129;52.232;5.192;2022-10-16T03:26:21;4.37;;;1.90;;
47383;SDS011;33129;52.232;5.192;2022-10-16T03:28:46;3.97;;;2.00;;
47383;SDS011;33129;52.232;5.192;2022-10-16T03:31:12;5.20;;;2.13;;
47383;SDS011;33129;52.232;5.192;2022-10-16T03:33:38;5.73;;;2.03;;
47383;SDS011;33129;52.232;5.192;2022-10-16T03:36:03;6.13;;;2.40;;
47383;SDS011;33129;52.232;5.192;2022-10-16T03:38:29;5.07;;;2.13;;
47383;SDS011;33129;52.232;5.192;2022-10-16T03:40:55;4.87;;;2.03;;
47383;SDS011;33129;52.232;5.192;2022-10-16T03:43:21;6.43;;;2.33;;
47383;SDS011;33129;52.232;5.192;2022-10-16T03:45:46;4.17;;;2.23;;
47383;SDS011;33129;52.232;5.192;2022-10-16T03:48:12;5.50;;;2.10;;
47383;SDS011;33129;52.232;5.192;2022-10-16T03:50:38;6.53;;;2.20;;
47383;SDS011;33129;52.232;5.192;2022-10-16T03:53:03;5.80;;;2.30;;
47383;SDS011;33129;52.232;5.192;2022-10-16T03:55:29;5.30;;;2.03;;
47383;SDS011;33129;52.232;5.192;2022-10-16T03:57:55;4.57;;;2.20;;
47383;SDS011;33129;52.232;5.192;2022-10-16T04:00:20;6.47;;;2.40;;
47383;SDS011;33129;52.232;5.192;2022-10-16T04:02:46;5.13;;;2.33;;
47383;SDS011;33129;52.232;5.192;2022-10-16T04:05:12;6.23;;;1.90;;
47383;SDS011;33129;52.232;5.192;2022-10-16T04:07:38;4.30;;;1.90;;
47383;SDS011;33129;52.232;5.192;2022-10-16T04:10:03;4.90;;;2.23;;
47383;SDS011;33129;52.232;5.192;2022-10-16T04:12:30;4.90;;;1.90;;
47383;SDS011;33129;52.232;5.192;2022-10-16T04:14:56;6.30;;;2.43;;
47383;SDS011;33129;52.232;5.192;2022-10-16T04:17:21;7.73;;;2.60;;
47383;SDS011;33129;52.232;5.192;2022-10-16T04:19:47;5.03;;;2.10;;
47383;SDS011;33129;52.232;5.192;2022-10-16T04:22:13;6.10;;;2.30;;
47383;SDS011;33129;52.232;5.192;2022-10-16T04:24:38;4.90;;;2.10;;
47383;SDS011;33129;52.232;5.192;2022-10-16T04:27:04;3.90;;;1.90;;
47383;SDS011;33129;52.232;5.192;2022-10-16T04:29:30;5.20;;;2.00;;
47383;SDS011;33129;52.232;5.192;2022-10-16T04:31:55;6.63;;;1.90;;
47383;SDS011;33129;52.232;5.192;2022-10-16T04:34:21;5.40;;;1.87;;
47383;SDS011;33129;52.232;5.192;2022-10-16T04:36:47;6.73;;;2.07;;
47383;SDS011;33129;52.232;5.192;2022-10-16T04:39:16;5.30;;;2.00;;
47383;SDS011;33129;52.232;5.192;2022-10-16T04:41:42;4.97;;;2.17;;
47383;SDS011;33129;52.232;5.192;2022-10-16T04:44:08;5.73;;;2.20;;
47383;SDS011;33129;52.232;5.192;2022-10-16T04:46:34;6.97;;;1.90;;
47383;SDS011;33129;52.232;5.192;2022-10-16T04:48:59;5.83;;;1.93;;
47383;SDS011;33129;52.232;5.192;2022-10-16T04:51:25;6.90;;;2.07;;
47383;SDS011;33129;52.232;5.192;2022-10-16T04:53:52;5.20;;;1.77;;
47383;SDS011;33129;52.232;5.192;2022-10-16T04:56:19;4.63;;;2.73;;
47383;SDS011;33129;52.232;5.192;2022-10-16T04:58:46;4.97;;;1.90;;
47383;SDS011;33129;52.232;5.192;2022-10-16T05:01:12;5.27;;;2.17;;
47383;SDS011;33129;52.232;5.192;2022-10-16T05:03:38;6.20;;;2.10;;
47383;SDS011;33129;52.232;5.192;2022-10-16T05:06:07;3.73;;;1.93;;
47383;SDS011;33129;52.232;5.192;2022-10-16T05:08:33;6.50;;;2.13;;
47383;SDS011;33129;52.232;5.192;2022-10-16T05:10:59;4.40;;;2.40;;
47383;SDS011;33129;52.232;5.192;2022-10-16T05:13:25;14.53;;;2.30;;
47383;SDS011;33129;52.232;5.192;2022-10-16T05:15:51;5.30;;;2.03;;
47383;SDS011;33129;52.232;5.192;2022-10-16T05:18:17;5.97;;;2.33;;
47383;SDS011;33129;52.232;5.192;2022-10-16T05:20:42;8.20;;;2.20;;
47383;SDS011;33129;52.232;5.192;2022-10-16T05:23:08;6.53;;;2.47;;
47383;SDS011;33129;52.232;5.192;2022-10-16T05:25:35;4.83;;;2.27;;
47383;SDS011;33129;52.232;5.192;2022-10-16T05:28:01;4.37;;;1.90;;
47383;SDS011;33129;52.232;5.192;2022-10-16T05:30:28;3.80;;;1.90;;
47383;SDS011;33129;52.232;5.192;2022-10-16T05:32:53;7.23;;;2.00;;
47383;SDS011;33129;52.232;5.192;2022-10-16T05:35:19;5.03;;;2.10;;
47383;SDS011;33129;52.232;5.192;2022-10-16T05:37:46;4.83;;;2.30;;
47383;SDS011;33129;52.232;5.192;2022-10-16T05:40:12;6.67;;;2.10;;
47383;SDS011;33129;52.232;5.192;2022-10-16T05:42:39;4.60;;;2.03;;
47383;SDS011;33129;52.232;5.192;2022-10-16T05:45:06;5.67;;;2.03;;
47383;SDS011;33129;52.232;5.192;2022-10-16T05:47:34;6.10;;;2.30;;
47383;SDS011;33129;52.232;5.192;2022-10-16T05:50:00;5.37;;;2.10;;
47383;SDS011;33129;52.232;5.192;2022-10-16T05:52:26;5.67;;;2.30;;
47383;SDS011;33129;52.232;5.192;2022-10-16T05:54:52;5.57;;;2.27;;
47383;SDS011;33129;52.232;5.192;2022-10-16T05:57:18;6.03;;;2.13;;
47383;SDS011;33129;52.232;5.192;2022-10-16T05:59:43;5.07;;;2.40;;
47383;SDS011;33129;52.232;5.192;2022-10-16T06:02:11;4.73;;;2.10;;
47383;SDS011;33129;52.232;5.192;2022-10-16T06:04:38;6.07;;;2.37;;
47383;SDS011;33129;52.232;5.192;2022-10-16T06:07:04;5.83;;;2.50;;
47383;SDS011;33129;52.232;5.192;2022-10-16T06:09:30;6.47;;;3.00;;
47383;SDS011;33129;52.232;5.192;2022-10-16T06:11:56;5.03;;;2.53;;
47383;SDS011;33129;52.232;5.192;2022-10-16T06:14:22;5.83;;;2.70;;
47383;SDS011;33129;52.232;5.192;2022-10-16T06:16:48;6.30;;;2.80;;
47383;SDS011;33129;52.232;5.192;2022-10-16T06:19:14;6.07;;;2.60;;
47383;SDS011;33129;52.232;5.192;2022-10-16T06:21:41;6.33;;;2.73;;
47383;SDS011;33129;52.232;5.192;2022-10-16T06:24:07;7.43;;;2.67;;
47383;SDS011;33129;52.232;5.192;2022-10-16T06:26:33;8.17;;;3.17;;
47383;SDS011;33129;52.232;5.192;2022-10-16T06:28:59;7.13;;;2.93;;
47383;SDS011;33129;52.232;5.192;2022-10-16T06:31:25;6.43;;;3.30;;
47383;SDS011;33129;52.232;5.192;2022-10-16T06:33:52;6.00;;;3.00;;
47383;SDS011;33129;52.232;5.192;2022-10-16T06:36:19;7.90;;;3.60;;
47383;SDS011;33129;52.232;5.192;2022-10-16T06:38:45;4.97;;;2.60;;
47383;SDS011;33129;52.232;5.192;2022-10-16T06:41:12;7.53;;;3.03;;
47383;SDS011;33129;52.232;5.192;2022-10-16T06:43:41;9.57;;;3.20;;
47383;SDS011;33129;52.232;5.192;2022-10-16T06:46:10;7.93;;;3.50;;
47383;SDS011;33129;52.232;5.192;2022-10-16T06:48:39;5.83;;;3.13;;
47383;SDS011;33129;52.232;5.192;2022-10-16T06:53:37;6.93;;;3.43;;
47383;SDS011;33129;52.232;5.192;2022-10-16T06:56:13;7.33;;;3.67;;
47383;SDS011;33129;52.232;5.192;2022-10-16T06:58:50;8.27;;;3.30;;
47383;SDS011;33129;52.232;5.192;2022-10-16T07:01:18;5.20;;;2.83;;
47383;SDS011;33129;52.232;5.192;2022-10-16T07:06:15;7.60;;;2.97;;
47383;SDS011;33129;52.232;5.192;2022-10-16T07:08:44;5.07;;;2.50;;
47383;SDS011;33129;52.232;5.192;2022-10-16T07:11:13;5.43;;;2.30;;
47383;SDS011;33129;52.232;5.192;2022-10-16T07:13:42;8.70;;;2.50;;
47383;SDS011;33129;52.232;5.192;2022-10-16T07:16:10;5.93;;;2.33;;
47383;SDS011;33129;52.232;5.192;2022-10-16T07:18:39;8.38;;;2.60;;
47383;SDS011;33129;52.232;5.192;2022-10-16T07:21:08;5.73;;;2.60;;
47383;SDS011;33129;52.232;5.192;2022-10-16T07:23:43;8.13;;;2.43;;
47383;SDS011;33129;52.232;5.192;2022-10-16T07:26:09;5.73;;;2.03;;
47383;SDS011;33129;52.232;5.192;2022-10-16T07:28:35;7.27;;;2.37;;
47383;SDS011;33129;52.232;5.192;2022-10-16T07:31:06;3.67;;;1.80;;
47383;SDS011;33129;52.232;5.192;2022-10-16T07:33:37;7.00;;;2.00;;
47383;SDS011;33129;52.232;5.192;2022-10-16T07:36:05;6.70;;;1.97;;
47383;SDS011;33129;52.232;5.192;2022-10-16T07:38:31;4.27;;;1.80;;
47383;SDS011;33129;52.232;5.192;2022-10-16T07:41:07;6.70;;;1.93;;
47383;SDS011;33129;52.232;5.192;2022-10-16T07:43:35;7.93;;;2.10;;
47383;SDS011;33129;52.232;5.192;2022-10-16T07:46:01;6.97;;;1.80;;
47383;SDS011;33129;52.232;5.192;2022-10-16T07:48:28;6.03;;;1.70;;
47383;SDS011;33129;52.232;5.192;2022-10-16T07:50:59;6.47;;;2.20;;
47383;SDS011;33129;52.232;5.192;2022-10-16T07:53:30;4.20;;;1.80;;
47383;SDS011;33129;52.232;5.192;2022-10-16T07:55:57;6.50;;;1.90;;
47383;SDS011;33129;52.232;5.192;2022-10-16T07:58:30;4.47;;;1.70;;
47383;SDS011;33129;52.232;5.192;2022-10-16T08:00:57;5.87;;;1.70;;
47383;SDS011;33129;52.232;5.192;2022-10-16T08:07:07;6.47;;;2.00;;
47383;SDS011;33129;52.232;5.192;2022-10-16T08:09:33;5.30;;;1.93;;
47383;SDS011;33129;52.232;5.192;2022-10-16T08:12:04;6.23;;;2.13;;
47383;SDS011;33129;52.232;5.192;2022-10-16T08:14:30;6.00;;;1.70;;
47383;SDS011;33129;52.232;5.192;2022-10-16T08:16:56;9.43;;;2.40;;
47383;SDS011;33129;52.232;5.192;2022-10-16T08:19:22;5.83;;;2.30;;
47383;SDS011;33129;52.232;5.192;2022-10-16T08:21:48;8.85;;;1.88;;
47383;SDS011;33129;52.232;5.192;2022-10-16T08:24:13;7.45;;;2.00;;
47383;SDS011;33129;52.232;5.192;2022-10-16T08:26:39;8.48;;;2.35;;
47383;SDS011;33129;52.232;5.192;2022-10-16T08:29:06;7.32;;;1.90;;
47383;SDS011;33129;52.232;5.192;2022-10-16T08:31:32;5.70;;;1.75;;
47383;SDS011;33129;52.232;5.192;2022-10-16T08:33:58;7.78;;;2.17;;
47383;SDS011;33129;52.232;5.192;2022-10-16T08:36:23;4.40;;;1.90;;
47383;SDS011;33129;52.232;5.192;2022-10-16T08:38:49;5.75;;;1.80;;
47383;SDS011;33129;52.232;5.192;2022-10-16T08:41:19;7.32;;;2.40;;
47383;SDS011;33129;52.232;5.192;2022-10-16T08:49:40;6.40;;;1.80;;
47383;SDS011;33129;52.232;5.192;2022-10-16T08:52:29;5.63;;;1.60;;
47383;SDS011;33129;52.232;5.192;2022-10-16T08:55:00;7.13;;;1.95;;
47383;SDS011;33129;52.232;5.192;2022-10-16T08:57:27;8.23;;;2.10;;
47383;SDS011;33129;52.232;5.192;2022-10-16T08:59:53;5.60;;;1.67;;
47383;SDS011;33129;52.232;5.192;2022-10-16T09:10:12;6.22;;;2.08;;
47383;SDS011;33129;52.232;5.192;2022-10-16T09:12:56;5.95;;;1.50;;
47383;SDS011;33129;52.232;5.192;2022-10-16T09:21:39;5.60;;;1.63;;
47383;SDS011;33129;52.232;5.192;2022-10-16T09:26:42;8.52;;;2.22;;
47383;SDS011;33129;52.232;5.192;2022-10-16T09:29:15;8.70;;;2.28;;
47383;SDS011;33129;52.232;5.192;2022-10-16T09:31:45;7.05;;;2.15;;
47383;SDS011;33129;52.232;5.192;2022-10-16T09:34:33;6.53;;;2.08;;
47383;SDS011;33129;52.232;5.192;2022-10-16T09:37:00;7.70;;;2.53;;
47383;SDS011;33129;52.232;5.192;2022-10-16T09:39:43;9.85;;;2.53;;
47383;SDS011;33129;52.232;5.192;2022-10-16T09:42:20;8.77;;;2.30;;
47383;SDS011;33129;52.232;5.192;2022-10-16T09:44:56;7.15;;;2.28;;
47383;SDS011;33129;52.232;5.192;2022-10-16T09:47:25;9.80;;;2.15;;
47383;SDS011;33129;52.232;5.192;2022-10-16T09:50:04;9.88;;;2.38;;
47383;SDS011;33129;52.232;5.192;2022-10-16T09:52:45;12.38;;;2.35;;
47383;SDS011;33129;52.232;5.192;2022-10-16T09:55:15;8.48;;;2.15;;
47383;SDS011;33129;52.232;5.192;2022-10-16T09:57:52;8.40;;;2.08;;
47383;SDS011;33129;52.232;5.192;2022-10-16T10:00:19;8.90;;;2.03;;
47383;SDS011;33129;52.232;5.192;2022-10-16T10:02:47;8.80;;;2.08;;
47383;SDS011;33129;52.232;5.192;2022-10-16T10:05:17;9.32;;;2.47;;
47383;SDS011;33129;52.232;5.192;2022-10-16T10:07:59;10.00;;;2.33;;
47383;SDS011;33129;52.232;5.192;2022-10-16T10:10:31;10.57;;;1.83;;
47383;SDS011;33129;52.232;5.192;2022-10-16T10:13:02;9.15;;;2.97;;
47383;SDS011;33129;52.232;5.192;2022-10-16T10:15:29;12.15;;;2.65;;
47383;SDS011;33129;52.232;5.192;2022-10-16T10:17:59;10.63;;;1.92;;
47383;SDS011;33129;52.232;5.192;2022-10-16T10:20:29;7.95;;;2.20;;
47383;SDS011;33129;52.232;5.192;2022-10-16T10:22:59;9.88;;;2.10;;
47383;SDS011;33129;52.232;5.192;2022-10-16T10:28:21;7.70;;;2.13;;
47383;SDS011;33129;52.232;5.192;2022-10-16T10:31:13;10.30;;;2.28;;
47383;SDS011;33129;52.232;5.192;2022-10-16T10:37:10;8.50;;;2.50;;
47383;SDS011;33129;52.232;5.192;2022-10-16T10:40:49;8.25;;;2.50;;
47383;SDS011;33129;52.232;5.192;2022-10-16T10:43:33;12.05;;;2.58;;
47383;SDS011;33129;52.232;5.192;2022-10-16T10:46:28;9.57;;;2.47;;
47383;SDS011;33129;52.232;5.192;2022-10-16T10:49:39;10.15;;;2.22;;
47383;SDS011;33129;52.232;5.192;2022-10-16T11:09:32;7.13;;;2.00;;
47383;SDS011;33129;52.232;5.192;2022-10-16T11:15:05;8.90;;;1.88;;
47383;SDS011;33129;52.232;5.192;2022-10-16T11:17:53;11.55;;;2.60;;
47383;SDS011;33129;52.232;5.192;2022-10-16T11:20:42;10.40;;;2.80;;
47383;SDS011;33129;52.232;5.192;2022-10-16T11:25:56;8.98;;;2.78;;
47383;SDS011;33129;52.232;5.192;2022-10-16T11:28:28;8.20;;;2.70;;
47383;SDS011;33129;52.232;5.192;2022-10-16T11:39:24;7.45;;;2.10;;
47383;SDS011;33129;52.232;5.192;2022-10-16T11:47:37;8.07;;;1.88;;
47383;SDS011;33129;52.232;5.192;2022-10-16T11:50:13;12.23;;;2.25;;
47383;SDS011;33129;52.232;5.192;2022-10-16T11:55:48;9.07;;;2.63;;
47383;SDS011;33129;52.232;5.192;2022-10-16T12:01:06;7.28;;;1.73;;
47383;SDS011;33129;52.232;5.192;2022-10-16T12:06:59;7.78;;;2.17;;
47383;SDS011;33129;52.232;5.192;2022-10-16T12:09:38;6.38;;;1.85;;
47383;SDS011;33129;52.232;5.192;2022-10-16T12:15:42;6.65;;;1.70;;
47383;SDS011;33129;52.232;5.192;2022-10-16T12:17:54;7.40;;;2.20;;
47383;SDS011;33129;52.232;5.192;2022-10-16T12:20:25;10.40;;;2.28;;
47383;SDS011;33129;52.232;5.192;2022-10-16T12:23:06;11.95;;;2.92;;
47383;SDS011;33129;52.232;5.192;2022-10-16T12:25:53;7.20;;;1.88;;
47383;SDS011;33129;52.232;5.192;2022-10-16T12:28:30;9.35;;;1.65;;
47383;SDS011;33129;52.232;5.192;2022-10-16T12:31:02;6.50;;;1.88;;
47383;SDS011;33129;52.232;5.192;2022-10-16T12:33:32;10.20;;;2.50;;
47383;SDS011;33129;52.232;5.192;2022-10-16T12:36:06;9.00;;;2.28;;
47383;SDS011;33129;52.232;5.192;2022-10-16T12:38:47;10.65;;;2.88;;
47383;SDS011;33129;52.232;5.192;2022-10-16T12:41:29;6.78;;;2.30;;
47383;SDS011;33129;52.232;5.192;2022-10-16T12:44:01;10.55;;;2.20;;
47383;SDS011;33129;52.232;5.192;2022-10-16T12:51:39;8.00;;;1.88;;
47383;SDS011;33129;52.232;5.192;2022-10-16T13:02:17;10.57;;;2.30;;
47383;SDS011;33129;52.232;5.192;2022-10-16T13:11:05;8.73;;;2.13;;
47383;SDS011;33129;52.232;5.192;2022-10-16T13:13:44;7.78;;;1.98;;
47383;SDS011;33129;52.232;5.192;2022-10-16T13:16:27;10.23;;;1.92;;
47383;SDS011;33129;52.232;5.192;2022-10-16T13:19:18;7.32;;;1.80;;
47383;SDS011;33129;52.232;5.192;2022-10-16T13:25:22;10.02;;;2.28;;
47383;SDS011;33129;52.232;5.192;2022-10-16T13:27:56;11.25;;;2.63;;
47383;SDS011;33129;52.232;5.192;2022-10-16T13:30:38;10.27;;;2.50;;
47383;SDS011;33129;52.232;5.192;2022-10-16T13:33:17;13.05;;;2.45;;
47383;SDS011;33129;52.232;5.192;2022-10-16T13:35:54;7.07;;;2.22;;
47383;SDS011;33129;52.232;5.192;2022-10-16T13:38:22;8.68;;;2.03;;
47383;SDS011;33129;52.232;5.192;2022-10-16T13:41:00;9.77;;;2.60;;
47383;SDS011;33129;52.232;5.192;2022-10-16T13:43:35;11.07;;;2.47;;
47383;SDS011;33129;52.232;5.192;2022-10-16T13:46:13;8.20;;;2.13;;
47383;SDS011;33129;52.232;5.192;2022-10-16T13:48:41;9.13;;;2.20;;
47383;SDS011;33129;52.232;5.192;2022-10-16T13:51:17;9.75;;;2.40;;
47383;SDS011;33129;52.232;5.192;2022-10-16T13:53:44;11.57;;;2.85;;
47383;SDS011;33129;52.232;5.192;2022-10-16T13:56:12;10.88;;;2.70;;
47383;SDS011;33129;52.232;5.192;2022-10-16T13:58:41;8.60;;;2.08;;
47383;SDS011;33129;52.232;5.192;2022-10-16T14:03:45;8.82;;;1.92;;
47383;SDS011;33129;52.232;5.192;2022-10-16T14:06:13;11.45;;;2.35;;
47383;SDS011;33129;52.232;5.192;2022-10-16T14:08:43;7.45;;;1.80;;
47383;SDS011;33129;52.232;5.192;2022-10-16T14:11:20;10.82;;;2.13;;
47383;SDS011;33129;52.232;5.192;2022-10-16T14:13:51;8.30;;;1.90;;
47383;SDS011;33129;52.232;5.192;2022-10-16T14:16:21;10.05;;;2.35;;
47383;SDS011;33129;52.232;5.192;2022-10-16T14:18:56;10.07;;;2.67;;
47383;SDS011;33129;52.232;5.192;2022-10-16T14:21:26;9.55;;;2.47;;
47383;SDS011;33129;52.232;5.192;2022-10-16T14:23:53;8.48;;;2.55;;
47383;SDS011;33129;52.232;5.192;2022-10-16T14:26:20;10.43;;;2.47;;
47383;SDS011;33129;52.232;5.192;2022-10-16T14:29:03;12.15;;;3.03;;
47383;SDS011;33129;52.232;5.192;2022-10-16T14:31:43;13.48;;;2.67;;
47383;SDS011;33129;52.232;5.192;2022-10-16T14:34:25;7.80;;;2.60;;
47383;SDS011;33129;52.232;5.192;2022-10-16T14:36:58;10.07;;;2.85;;
47383;SDS011;33129;52.232;5.192;2022-10-16T14:39:31;12.55;;;2.83;;
47383;SDS011;33129;52.232;5.192;2022-10-16T14:41:58;11.48;;;2.35;;
47383;SDS011;33129;52.232;5.192;2022-10-16T14:44:27;8.65;;;2.70;;
47383;SDS011;33129;52.232;5.192;2022-10-16T14:47:06;9.43;;;2.88;;
47383;SDS011;33129;52.232;5.192;2022-10-16T14:49:35;12.60;;;3.03;;
47383;SDS011;33129;52.232;5.192;2022-10-16T14:52:01;7.60;;;2.22;;
47383;SDS011;33129;52.232;5.192;2022-10-16T14:54:27;12.52;;;2.38;;
47383;SDS011;33129;52.232;5.192;2022-10-16T14:56:53;12.20;;;2.80;;
47383;SDS011;33129;52.232;5.192;2022-10-16T15:01:54;11.60;;;2.90;;
47383;SDS011;33129;52.232;5.192;2022-10-16T15:04:19;10.70;;;2.95;;
47383;SDS011;33129;52.232;5.192;2022-10-16T15:06:45;9.20;;;3.22;;
47383;SDS011;33129;52.232;5.192;2022-10-16T15:09:11;12.65;;;3.55;;
47383;SDS011;33129;52.232;5.192;2022-10-16T15:11:37;10.40;;;2.75;;
47383;SDS011;33129;52.232;5.192;2022-10-16T15:14:03;11.48;;;3.30;;
47383;SDS011;33129;52.232;5.192;2022-10-16T15:16:30;11.35;;;2.45;;
47383;SDS011;33129;52.232;5.192;2022-10-16T15:18:57;11.13;;;2.80;;
47383;SDS011;33129;52.232;5.192;2022-10-16T15:21:27;12.70;;;3.10;;
47383;SDS011;33129;52.232;5.192;2022-10-16T15:23:56;11.98;;;3.15;;
47383;SDS011;33129;52.232;5.192;2022-10-16T15:26:23;8.70;;;2.58;;
47383;SDS011;33129;52.232;5.192;2022-10-16T15:28:50;10.23;;;3.45;;
47383;SDS011;33129;52.232;5.192;2022-10-16T15:31:17;12.60;;;3.08;;
47383;SDS011;33129;52.232;5.192;2022-10-16T15:33:43;11.98;;;3.55;;
47383;SDS011;33129;52.232;5.192;2022-10-16T15:36:09;11.75;;;2.95;;
47383;SDS011;33129;52.232;5.192;2022-10-16T15:38:35;11.93;;;3.53;;
47383;SDS011;33129;52.232;5.192;2022-10-16T15:41:00;8.02;;;3.10;;
47383;SDS011;33129;52.232;5.192;2022-10-16T15:43:26;14.43;;;3.33;;
47383;SDS011;33129;52.232;5.192;2022-10-16T15:48:30;10.48;;;3.13;;
47383;SDS011;33129;52.232;5.192;2022-10-16T15:50:57;15.63;;;4.10;;
47383;SDS011;33129;52.232;5.192;2022-10-16T15:53:23;12.85;;;3.63;;
47383;SDS011;33129;52.232;5.192;2022-10-16T15:55:49;16.17;;;6.25;;
47383;SDS011;33129;52.232;5.192;2022-10-16T15:58:15;18.85;;;6.50;;
47383;SDS011;33129;52.232;5.192;2022-10-16T16:00:41;12.30;;;3.92;;
47383;SDS011;33129;52.232;5.192;2022-10-16T16:03:06;17.48;;;5.65;;
47383;SDS011;33129;52.232;5.192;2022-10-16T16:05:32;14.65;;;4.90;;
47383;SDS011;33129;52.232;5.192;2022-10-16T16:08:00;11.38;;;4.13;;
47383;SDS011;33129;52.232;5.192;2022-10-16T16:10:26;14.15;;;4.90;;
47383;SDS011;33129;52.232;5.192;2022-10-16T16:12:51;11.10;;;3.83;;
47383;SDS011;33129;52.232;5.192;2022-10-16T16:15:21;8.32;;;4.13;;
47383;SDS011;33129;52.232;5.192;2022-10-16T16:17:47;12.40;;;4.87;;
47383;SDS011;33129;52.232;5.192;2022-10-16T16:20:14;12.90;;;4.47;;
47383;SDS011;33129;52.232;5.192;2022-10-16T16:22:40;9.57;;;3.03;;
47383;SDS011;33129;52.232;5.192;2022-10-16T16:25:06;10.27;;;3.00;;
47383;SDS011;33129;52.232;5.192;2022-10-16T16:27:32;10.83;;;2.73;;
47383;SDS011;33129;52.232;5.192;2022-10-16T16:29:59;11.60;;;3.00;;
47383;SDS011;33129;52.232;5.192;2022-10-16T16:32:26;12.93;;;3.90;;
47383;SDS011;33129;52.232;5.192;2022-10-16T16:34:51;12.00;;;4.40;;
47383;SDS011;33129;52.232;5.192;2022-10-16T16:37:17;12.37;;;4.80;;
47383;SDS011;33129;52.232;5.192;2022-10-16T16:39:43;19.03;;;5.83;;
47383;SDS011;33129;52.232;5.192;2022-10-16T16:42:09;13.50;;;5.67;;
47383;SDS011;33129;52.232;5.192;2022-10-16T16:44:35;13.60;;;5.43;;
47383;SDS011;33129;52.232;5.192;2022-10-16T16:47:02;17.23;;;6.40;;
47383;SDS011;33129;52.232;5.192;2022-10-16T16:49:29;16.67;;;7.60;;
47383;SDS011;33129;52.232;5.192;2022-10-16T16:51:55;19.50;;;7.47;;
47383;SDS011;33129;52.232;5.192;2022-10-16T16:54:21;17.03;;;7.20;;
47383;SDS011;33129;52.232;5.192;2022-10-16T16:56:47;14.13;;;5.60;;
47383;SDS011;33129;52.232;5.192;2022-10-16T16:59:14;14.43;;;4.50;;
47383;SDS011;33129;52.232;5.192;2022-10-16T17:01:45;12.37;;;4.50;;
47383;SDS011;33129;52.232;5.192;2022-10-16T17:04:11;11.70;;;4.10;;
47383;SDS011;33129;52.232;5.192;2022-10-16T17:06:40;10.60;;;3.93;;
47383;SDS011;33129;52.232;5.192;2022-10-16T17:09:06;12.30;;;4.37;;
47383;SDS011;33129;52.232;5.192;2022-10-16T17:11:33;10.77;;;4.27;;
47383;SDS011;33129;52.232;5.192;2022-10-16T17:13:59;14.93;;;4.13;;
47383;SDS011;33129;52.232;5.192;2022-10-16T17:16:31;14.57;;;5.87;;
47383;SDS011;33129;52.232;5.192;2022-10-16T17:19:03;13.07;;;5.57;;
47383;SDS011;33129;52.232;5.192;2022-10-16T17:21:32;13.97;;;5.03;;
47383;SDS011;33129;52.232;5.192;2022-10-16T17:23:58;9.67;;;3.27;;